createdAt,value
2019-03-09T00:00:38.342Z,2.33
2019-03-09T00:03:09.590Z,2.33
2019-03-09T00:05:42.498Z,2.90
2019-03-09T00:08:15.518Z,3.60
2019-03-09T00:10:47.014Z,2.37
2019-03-09T00:13:18.353Z,2.53
2019-03-09T00:15:49.198Z,2.30
2019-03-09T00:18:20.310Z,2.70
2019-03-09T00:20:51.868Z,2.87
2019-03-09T00:23:27.696Z,2.97
2019-03-09T00:26:00.710Z,3.20
2019-03-09T00:28:51.567Z,3.10
2019-03-09T00:31:29.877Z,3.97
2019-03-09T00:34:00.943Z,3.17
2019-03-09T00:36:31.357Z,3.13
2019-03-09T00:39:04.367Z,2.67
2019-03-09T00:41:35.220Z,3.03
2019-03-09T00:44:11.356Z,3.53
2019-03-09T00:46:48.805Z,3.23
2019-03-09T00:49:19.653Z,3.00
2019-03-09T00:51:51.267Z,3.40
2019-03-09T00:54:24.656Z,2.80
2019-03-09T00:56:55.422Z,3.27
2019-03-09T00:59:27.015Z,2.60
2019-03-09T01:02:04.990Z,3.93
2019-03-09T01:04:37.001Z,4.10
2019-03-09T01:07:08.922Z,3.63
2019-03-09T01:09:41.265Z,4.70
2019-03-09T01:12:12.235Z,3.37
2019-03-09T01:14:45.014Z,3.80
2019-03-09T01:17:16.991Z,3.00
2019-03-09T01:19:47.544Z,3.10
2019-03-09T01:22:19.085Z,3.93
2019-03-09T01:24:50.806Z,4.80
2019-03-09T01:27:22.373Z,3.80
2019-03-09T01:29:59.427Z,4.83
2019-03-09T01:36:02.180Z,5.37
2019-03-09T01:39:06.873Z,4.70
2019-03-09T01:41:39.345Z,5.13
2019-03-09T01:44:10.428Z,4.43
2019-03-09T01:46:40.982Z,4.20
2019-03-09T01:49:11.677Z,3.77
2019-03-09T01:51:43.417Z,4.77
2019-03-09T01:54:16.094Z,5.47
2019-03-09T01:56:47.999Z,4.03
2019-03-09T01:59:18.801Z,4.87
2019-03-09T02:01:49.904Z,4.73
2019-03-09T02:04:21.528Z,4.77
2019-03-09T02:06:54.222Z,5.30
2019-03-09T02:09:49.522Z,5.70
2019-03-09T02:12:21.666Z,4.80
2019-03-09T02:14:52.556Z,6.70
2019-03-09T02:17:24.636Z,6.13
2019-03-09T02:19:55.950Z,7.30
2019-03-09T02:22:26.992Z,7.77
2019-03-09T02:24:58.494Z,8.97
2019-03-09T02:27:32.956Z,8.00
2019-03-09T02:30:07.629Z,9.00
2019-03-09T02:32:54.750Z,8.73
2019-03-09T02:35:40.714Z,9.47
2019-03-09T02:38:22.330Z,10.53
2019-03-09T02:40:53.331Z,11.27
2019-03-09T02:43:25.846Z,12.57
2019-03-09T02:45:57.409Z,12.80
2019-03-09T02:48:31.003Z,13.43
2019-03-09T02:51:02.039Z,12.60
2019-03-09T02:53:32.711Z,14.20
2019-03-09T02:56:04.037Z,14.23
2019-03-09T02:58:34.818Z,13.67
2019-03-09T03:01:10.782Z,14.20
2019-03-09T03:03:42.263Z,15.00
2019-03-09T03:06:15.694Z,15.40
2019-03-09T03:08:46.693Z,13.57
2019-03-09T03:11:18.425Z,14.37
2019-03-09T03:13:50.417Z,13.27
2019-03-09T03:16:25.325Z,14.27
2019-03-09T03:18:58.929Z,15.20
2019-03-09T03:21:31.295Z,14.47
2019-03-09T03:24:03.421Z,13.93
2019-03-09T03:26:34.852Z,12.30
2019-03-09T03:29:09.170Z,12.73
2019-03-09T03:31:42.674Z,12.60
2019-03-09T03:34:20.138Z,11.50
2019-03-09T03:36:52.252Z,11.53
2019-03-09T03:39:27.659Z,10.83
2019-03-09T03:41:59.705Z,9.73
2019-03-09T03:44:41.579Z,8.93
2019-03-09T03:47:37.598Z,10.30
2019-03-09T03:53:40.389Z,9.40
2019-03-09T03:59:35.851Z,10.83
2019-03-09T04:02:07.470Z,11.37
2019-03-09T04:04:39.733Z,10.47
2019-03-09T04:07:10.409Z,11.43
2019-03-09T04:09:41.456Z,10.57
2019-03-09T04:12:14.048Z,10.23
2019-03-09T04:14:45.675Z,10.30
2019-03-09T04:17:18.862Z,9.57
2019-03-09T04:19:52.098Z,10.10
2019-03-09T04:22:23.429Z,10.70
2019-03-09T04:25:01.570Z,10.87
2019-03-09T04:27:35.827Z,10.80
2019-03-09T04:30:13.997Z,11.40
2019-03-09T04:32:46.489Z,10.37
2019-03-09T04:35:17.242Z,11.27
2019-03-09T04:37:48.244Z,10.87
2019-03-09T04:40:25.187Z,9.13
2019-03-09T04:42:56.845Z,10.60
2019-03-09T04:45:28.968Z,8.47
2019-03-09T04:48:05.397Z,9.93
2019-03-09T04:50:41.663Z,8.67
2019-03-09T04:53:12.405Z,9.07
2019-03-09T04:55:43.831Z,8.33
2019-03-09T04:58:17.342Z,8.63
2019-03-09T05:00:50.819Z,8.73
2019-03-09T05:03:21.943Z,8.67
2019-03-09T05:05:54.991Z,8.40
2019-03-09T05:08:29.775Z,8.63
2019-03-09T05:11:04.465Z,8.67
2019-03-09T05:13:38.784Z,8.13
2019-03-09T05:16:09.922Z,8.27
2019-03-09T05:18:41.909Z,8.23
2019-03-09T05:21:13.033Z,6.93
2019-03-09T05:23:46.378Z,8.10
2019-03-09T05:26:19.621Z,7.77
2019-03-09T05:28:51.671Z,7.43
2019-03-09T05:31:23.729Z,7.33
2019-03-09T05:33:54.671Z,8.03
2019-03-09T05:36:25.552Z,6.47
2019-03-09T05:38:56.719Z,6.70
2019-03-09T05:41:27.975Z,5.70
2019-03-09T05:44:00.749Z,6.27
2019-03-09T05:46:31.334Z,6.63
2019-03-09T05:49:03.881Z,6.40
2019-03-09T05:51:35.540Z,6.00
2019-03-09T05:54:07.532Z,5.60
2019-03-09T05:56:39.199Z,4.73
2019-03-09T05:59:10.371Z,4.47
2019-03-09T06:01:42.767Z,4.63
2019-03-09T06:04:15.521Z,4.80
2019-03-09T06:06:46.817Z,3.77
2019-03-09T06:09:18.779Z,4.73
2019-03-09T06:11:51.565Z,5.13
2019-03-09T06:14:22.974Z,5.80
2019-03-09T06:16:56.407Z,4.20
2019-03-09T06:19:27.264Z,6.07
2019-03-09T06:21:57.658Z,5.20
2019-03-09T06:24:30.443Z,5.43
2019-03-09T06:27:01.380Z,5.50
2019-03-09T06:29:33.290Z,5.33
2019-03-09T06:32:33.311Z,5.70
2019-03-09T06:35:09.273Z,5.93
2019-03-09T06:37:42.780Z,6.27
2019-03-09T06:40:14.815Z,4.87
2019-03-09T06:42:48.662Z,4.83
2019-03-09T06:45:21.104Z,5.40
2019-03-09T06:47:52.486Z,5.43
2019-03-09T06:50:26.712Z,5.13
2019-03-09T06:53:00.033Z,6.13
2019-03-09T06:55:31.591Z,5.97
2019-03-09T06:58:03.844Z,4.87
2019-03-09T07:00:39.467Z,5.47
2019-03-09T07:03:13.799Z,5.70
2019-03-09T07:05:48.397Z,5.13
2019-03-09T07:08:19.870Z,5.40
2019-03-09T07:10:50.708Z,5.33
2019-03-09T07:13:21.426Z,5.67
2019-03-09T07:15:53.277Z,6.20
2019-03-09T07:18:25.338Z,5.93
2019-03-09T07:20:57.116Z,5.63
2019-03-09T07:23:29.706Z,6.37
2019-03-09T07:26:00.198Z,6.27
2019-03-09T07:28:32.537Z,6.27
2019-03-09T07:31:10.927Z,4.83
2019-03-09T07:33:50.179Z,4.70
2019-03-09T07:36:25.880Z,5.90
2019-03-09T07:38:57.041Z,5.80
2019-03-09T07:41:27.751Z,5.60
2019-03-09T07:43:59.436Z,6.43
2019-03-09T07:46:31.007Z,6.80
2019-03-09T07:49:03.267Z,5.93
2019-03-09T07:51:34.280Z,6.73
2019-03-09T07:54:05.643Z,5.53
2019-03-09T07:56:38.751Z,5.93
2019-03-09T07:59:11.737Z,6.37
2019-03-09T08:01:42.966Z,7.30
2019-03-09T08:04:16.342Z,5.00
2019-03-09T08:06:52.416Z,5.67
2019-03-09T08:09:24.628Z,5.57
2019-03-09T08:11:55.800Z,4.97
2019-03-09T08:14:26.894Z,5.07
2019-03-09T08:24:52.962Z,6.73
2019-03-09T08:27:29.399Z,6.07
2019-03-09T08:30:14.894Z,5.10
2019-03-09T08:32:39.520Z,4.90
2019-03-09T08:35:12.557Z,5.27
2019-03-09T08:37:44.230Z,5.10
2019-03-09T08:40:18.968Z,4.20
2019-03-09T08:42:51.975Z,5.17
2019-03-09T08:45:24.099Z,4.83
2019-03-09T08:47:57.454Z,4.93
2019-03-09T08:50:28.844Z,5.50
2019-03-09T08:52:59.857Z,5.17
2019-03-09T08:55:32.625Z,5.57
2019-03-09T08:58:06.414Z,6.00
2019-03-09T09:00:38.361Z,6.43
2019-03-09T09:03:09.682Z,5.13
2019-03-09T09:05:41.139Z,4.20
2019-03-09T09:08:12.047Z,5.43
2019-03-09T09:10:43.776Z,4.53
2019-03-09T09:13:14.866Z,5.20
2019-03-09T09:15:46.438Z,5.00
2019-03-09T09:18:18.348Z,6.00
2019-03-09T09:20:51.213Z,5.00
2019-03-09T09:23:22.096Z,4.70
2019-03-09T09:25:56.428Z,5.47
2019-03-09T09:28:29.352Z,4.43
2019-03-09T09:31:01.384Z,5.10
2019-03-09T09:33:33.300Z,4.67
2019-03-09T09:36:04.738Z,4.20
2019-03-09T09:38:36.234Z,4.53
2019-03-09T09:41:08.576Z,4.00
2019-03-09T09:43:41.915Z,4.20
2019-03-09T09:46:22.796Z,3.97
2019-03-09T09:48:55.388Z,4.10
2019-03-09T09:51:30.398Z,4.20
2019-03-09T09:54:01.360Z,4.63
2019-03-09T09:56:35.451Z,4.93
2019-03-09T09:59:05.848Z,4.40
2019-03-09T10:01:36.263Z,5.73
2019-03-09T10:04:07.575Z,5.60
2019-03-09T10:06:39.154Z,3.43
2019-03-09T10:09:09.895Z,4.13
2019-03-09T10:11:44.083Z,4.83
2019-03-09T10:14:16.720Z,4.97
2019-03-09T10:16:47.411Z,5.00
2019-03-09T10:19:19.462Z,5.07
2019-03-09T10:21:50.370Z,5.73
2019-03-09T10:24:21.669Z,4.70
2019-03-09T10:26:52.390Z,4.97
2019-03-09T10:29:23.390Z,4.17
2019-03-09T10:31:57.847Z,4.70
2019-03-09T10:34:29.362Z,4.37
2019-03-09T10:37:00.202Z,4.27
2019-03-09T10:39:30.893Z,5.00
2019-03-09T10:42:01.707Z,4.83
2019-03-09T10:44:33.657Z,6.00
2019-03-09T10:47:06.128Z,4.50
2019-03-09T10:49:36.884Z,4.47
2019-03-09T10:52:07.579Z,3.70
2019-03-09T10:54:39.657Z,3.67
2019-03-09T10:57:11.696Z,3.97
2019-03-09T10:59:44.146Z,5.10
2019-03-09T11:02:15.203Z,5.03
2019-03-09T11:04:45.648Z,4.33
2019-03-09T11:07:17.955Z,3.63
2019-03-09T11:09:49.049Z,4.03
2019-03-09T11:12:20.067Z,3.83
2019-03-09T11:14:51.427Z,3.73
2019-03-09T11:17:23.421Z,3.90
2019-03-09T11:19:55.898Z,4.67
2019-03-09T11:22:26.014Z,4.13
2019-03-09T11:25:03.405Z,4.93
2019-03-09T11:27:32.847Z,4.33
2019-03-09T11:30:07.446Z,4.37
2019-03-09T11:32:44.406Z,5.13
2019-03-09T11:35:15.319Z,4.67
2019-03-09T11:37:47.469Z,3.77
2019-03-09T11:40:21.708Z,4.10
2019-03-09T11:42:52.128Z,3.80
2019-03-09T11:45:23.110Z,4.80
2019-03-09T11:47:54.052Z,4.80
2019-03-09T11:50:27.626Z,5.83
2019-03-09T11:52:59.477Z,4.50
2019-03-09T11:55:30.313Z,5.07
2019-03-09T11:58:01.080Z,5.40
2019-03-09T12:00:59.940Z,5.07
2019-03-09T12:03:38.406Z,4.43
2019-03-09T12:06:20.303Z,4.47
2019-03-09T12:11:50.851Z,5.10
2019-03-09T12:14:33.156Z,5.00
2019-03-09T12:17:21.073Z,5.33
2019-03-09T12:20:03.140Z,4.70
2019-03-09T12:22:44.132Z,4.20
2019-03-09T12:25:23.942Z,4.27
2019-03-09T12:28:07.506Z,7.33
2019-03-09T12:30:49.506Z,5.03
2019-03-09T12:33:27.114Z,4.53
2019-03-09T12:36:04.287Z,3.77
2019-03-09T12:38:39.084Z,4.90
2019-03-09T12:41:16.206Z,4.60
2019-03-09T12:43:48.422Z,5.67
2019-03-09T12:46:20.510Z,5.50
2019-03-09T12:48:51.737Z,4.27
2019-03-09T12:51:23.939Z,4.97
2019-03-09T12:53:54.462Z,3.90
2019-03-09T12:56:26.160Z,4.33
2019-03-09T12:58:59.333Z,4.20
2019-03-09T13:01:31.381Z,4.63
2019-03-09T13:04:06.460Z,5.00
2019-03-09T13:06:39.935Z,4.60
2019-03-09T13:09:12.035Z,4.37
2019-03-09T13:11:43.186Z,5.17
2019-03-09T13:14:16.601Z,4.03
2019-03-09T13:16:48.701Z,3.80
2019-03-09T13:19:20.314Z,5.17
2019-03-09T13:21:52.262Z,4.70
2019-03-09T13:24:28.715Z,3.40
2019-03-09T13:27:00.643Z,3.97
2019-03-09T13:29:33.712Z,6.03
2019-03-09T13:32:06.519Z,3.53
2019-03-09T13:34:38.660Z,5.03
2019-03-09T13:37:09.648Z,5.17
2019-03-09T13:39:41.233Z,5.53
2019-03-09T13:42:13.610Z,6.20
2019-03-09T13:44:44.634Z,4.07
2019-03-09T13:47:15.977Z,4.63
2019-03-09T13:49:47.009Z,5.37
2019-03-09T13:52:17.859Z,4.77
2019-03-09T13:54:49.015Z,6.23
2019-03-09T13:57:21.598Z,5.23
2019-03-09T13:59:56.565Z,5.13
2019-03-09T14:02:29.583Z,5.03
2019-03-09T14:05:01.618Z,4.53
2019-03-09T14:07:34.833Z,4.83
2019-03-09T14:10:12.901Z,5.33
2019-03-09T14:16:10.829Z,5.00
2019-03-09T14:18:42.976Z,4.93
2019-03-09T14:21:14.208Z,5.70
2019-03-09T14:23:49.404Z,5.87
2019-03-09T14:33:10.031Z,4.87
2019-03-09T14:35:42.710Z,4.73
2019-03-09T14:38:16.489Z,6.63
2019-03-09T14:40:51.497Z,4.50
2019-03-09T14:43:22.608Z,4.27
2019-03-09T14:45:53.232Z,3.50
2019-03-09T14:48:26.059Z,3.20
2019-03-09T14:50:58.138Z,3.90
2019-03-09T14:59:39.711Z,3.10
2019-03-09T15:02:20.451Z,4.07
2019-03-09T15:04:52.257Z,2.60
2019-03-09T15:07:41.801Z,3.33
2019-03-09T15:14:13.152Z,2.47
2019-03-09T15:16:41.632Z,2.70
2019-03-09T15:22:48.100Z,3.00
2019-03-09T15:25:23.876Z,4.23
2019-03-09T15:27:57.195Z,3.07
2019-03-09T15:30:29.941Z,4.23
2019-03-09T15:33:02.828Z,3.40
2019-03-09T15:35:37.895Z,3.80
2019-03-09T15:41:52.211Z,3.73
2019-03-09T15:47:36.721Z,4.20
2019-03-09T15:50:14.679Z,3.30
2019-03-09T15:52:46.342Z,4.03
2019-03-09T15:55:18.581Z,3.03
2019-03-09T15:57:50.368Z,3.03
2019-03-09T16:00:23.994Z,3.33
2019-03-09T16:02:54.578Z,3.40
2019-03-09T16:08:51.226Z,3.67
2019-03-09T16:11:26.270Z,4.53
2019-03-09T16:14:00.054Z,3.40
2019-03-09T16:16:33.504Z,4.23
2019-03-09T16:22:47.369Z,3.30
2019-03-09T16:25:22.962Z,4.10
2019-03-09T16:27:54.726Z,4.57
2019-03-09T16:30:57.020Z,4.50
2019-03-09T16:33:28.880Z,2.97
2019-03-09T16:36:00.424Z,3.80
2019-03-09T16:41:56.628Z,4.30
2019-03-09T16:44:30.009Z,3.80
2019-03-09T16:47:04.350Z,5.50
2019-03-09T16:49:37.101Z,3.27
2019-03-09T16:52:13.167Z,4.17
2019-03-09T16:54:50.087Z,1.90
2019-03-09T16:57:23.985Z,0.90
2019-03-09T17:03:14.145Z,0.80
2019-03-09T17:05:45.792Z,0.63
2019-03-09T17:08:17.812Z,0.80
2019-03-09T17:10:54.032Z,1.00
2019-03-09T17:13:28.387Z,1.10
2019-03-09T17:16:16.143Z,0.90
2019-03-09T17:18:53.180Z,1.30
2019-03-09T17:21:28.870Z,1.20
2019-03-09T17:24:08.097Z,1.13
2019-03-09T17:26:42.306Z,0.80
2019-03-09T17:29:17.516Z,1.00
2019-03-09T17:32:01.643Z,1.30
2019-03-09T17:34:32.513Z,1.30
2019-03-09T17:37:08.090Z,1.87
2019-03-09T17:39:42.852Z,1.47
2019-03-09T17:42:19.338Z,1.57
2019-03-09T17:44:56.701Z,1.33
2019-03-09T17:47:30.714Z,1.30
2019-03-09T17:50:08.530Z,1.17
2019-03-09T17:52:47.641Z,1.03
2019-03-09T17:55:25.899Z,1.00
2019-03-09T17:57:58.346Z,1.10
2019-03-09T18:00:42.393Z,1.62
2019-03-09T18:03:13.506Z,1.70
2019-03-09T18:05:45.934Z,2.30
2019-03-09T18:08:18.132Z,2.77
2019-03-09T18:10:59.272Z,2.67
2019-03-09T18:13:30.957Z,2.50
2019-03-09T18:16:02.528Z,2.33
2019-03-09T18:18:34.297Z,2.10
2019-03-09T18:21:05.685Z,2.20
2019-03-09T18:23:37.435Z,3.23
2019-03-09T18:26:09.906Z,2.72
2019-03-09T18:28:41.605Z,2.15
2019-03-09T18:31:13.938Z,2.05
2019-03-09T18:33:45.320Z,2.00
2019-03-09T18:36:19.246Z,1.72
2019-03-09T18:39:08.017Z,1.50
2019-03-09T18:41:39.884Z,1.42
2019-03-09T18:44:12.463Z,1.52
2019-03-09T18:46:45.023Z,1.60
2019-03-09T18:49:17.941Z,1.80
2019-03-09T18:51:52.180Z,2.00
2019-03-09T18:54:24.151Z,1.90
2019-03-09T18:56:56.303Z,1.82
2019-03-09T18:59:28.257Z,1.65
2019-03-09T19:02:00.349Z,1.92
2019-03-09T19:04:31.362Z,1.70
2019-03-09T19:07:02.260Z,2.27
2019-03-09T19:09:34.119Z,1.62
2019-03-09T19:12:07.105Z,1.57
2019-03-09T19:14:38.827Z,1.65
2019-03-09T19:17:13.044Z,1.67
2019-03-09T19:19:44.314Z,1.82
2019-03-09T19:22:16.024Z,2.42
2019-03-09T19:24:48.833Z,1.97
2019-03-09T19:27:21.564Z,2.00
2019-03-09T19:29:53.452Z,2.05
2019-03-09T19:32:25.793Z,1.40
2019-03-09T19:34:58.333Z,1.98
2019-03-09T19:37:30.015Z,2.10
2019-03-09T19:40:02.231Z,2.77
2019-03-09T19:42:34.247Z,1.50
2019-03-09T19:45:10.760Z,1.75
2019-03-09T19:47:42.556Z,1.90
2019-03-09T19:50:19.471Z,2.25
2019-03-09T19:52:53.744Z,2.00
2019-03-09T19:55:24.448Z,1.63
2019-03-09T19:57:57.655Z,2.10
2019-03-09T20:00:29.879Z,3.23
2019-03-09T20:03:03.548Z,2.17
2019-03-09T20:05:36.314Z,2.07
2019-03-09T20:08:07.769Z,2.30
2019-03-09T20:10:41.529Z,1.77
2019-03-09T20:13:14.148Z,2.30
2019-03-09T20:15:47.760Z,1.87
2019-03-09T20:18:19.854Z,1.82
2019-03-09T20:20:52.522Z,2.40
2019-03-09T20:23:24.478Z,1.83
2019-03-09T20:25:57.368Z,2.10
2019-03-09T20:28:30.093Z,2.23
2019-03-09T20:31:03.444Z,2.60
2019-03-09T20:33:35.302Z,2.20
2019-03-09T20:36:06.712Z,2.30
2019-03-09T20:38:38.518Z,1.90
2019-03-09T20:41:10.871Z,1.82
2019-03-09T20:43:42.648Z,3.15
2019-03-09T20:46:14.475Z,2.10
2019-03-09T20:48:46.760Z,1.90
2019-03-09T20:51:18.785Z,2.20
2019-03-09T20:53:50.118Z,2.27
2019-03-09T20:56:22.186Z,1.63
2019-03-09T20:58:55.095Z,1.60
2019-03-09T21:01:28.249Z,3.13
2019-03-09T21:04:01.240Z,1.40
2019-03-09T21:06:34.512Z,1.63
2019-03-09T21:09:08.051Z,1.90
2019-03-09T21:11:39.522Z,1.90
2019-03-09T21:14:11.860Z,2.20
2019-03-09T21:16:45.000Z,1.70
2019-03-09T21:19:17.853Z,2.17
2019-03-09T21:21:49.365Z,1.85
2019-03-09T21:24:22.194Z,1.57
2019-03-09T21:26:55.026Z,1.70
2019-03-09T21:29:27.265Z,1.70
2019-03-09T21:31:58.553Z,1.62
2019-03-09T21:34:31.873Z,1.87
2019-03-09T21:37:04.879Z,1.75
2019-03-09T21:39:36.016Z,1.73
2019-03-09T21:42:10.885Z,2.00
2019-03-09T21:44:45.579Z,2.13
2019-03-09T21:47:17.897Z,2.10
2019-03-09T21:49:49.736Z,2.67
2019-03-09T21:52:21.125Z,2.00
2019-03-09T21:54:55.752Z,2.13
2019-03-09T21:57:29.550Z,2.07
2019-03-09T22:00:01.124Z,2.87
2019-03-09T22:02:32.862Z,3.00
2019-03-09T22:05:08.325Z,2.77
2019-03-09T22:07:39.822Z,3.27
2019-03-09T22:10:12.088Z,3.10
2019-03-09T22:12:43.640Z,3.17
2019-03-09T22:15:17.198Z,3.00
2019-03-09T22:17:49.203Z,2.37
2019-03-09T22:20:22.187Z,2.70
2019-03-09T22:22:54.012Z,2.53
2019-03-09T22:25:26.022Z,3.40
2019-03-09T22:27:57.907Z,3.97
2019-03-09T22:30:29.847Z,3.83
2019-03-09T22:33:04.473Z,3.57
2019-03-09T22:35:35.463Z,4.08
2019-03-09T22:38:07.275Z,3.80
2019-03-09T22:40:38.279Z,3.67
2019-03-09T22:43:10.550Z,4.08
2019-03-09T22:45:41.999Z,3.10
2019-03-09T22:48:13.676Z,5.13
2019-03-09T22:50:45.365Z,3.43
2019-03-09T22:53:16.554Z,3.10
2019-03-09T22:55:48.834Z,3.83
2019-03-09T22:58:20.754Z,4.37
2019-03-09T23:00:53.531Z,3.87
2019-03-09T23:03:24.693Z,4.20
2019-03-09T23:05:57.787Z,3.37
2019-03-09T23:08:30.207Z,5.23
2019-03-09T23:11:02.006Z,3.90
2019-03-09T23:13:34.354Z,3.20
2019-03-09T23:16:06.800Z,3.73
2019-03-09T23:18:39.122Z,3.87
2019-03-09T23:21:10.919Z,2.90
2019-03-09T23:23:43.134Z,3.80
2019-03-09T23:26:15.540Z,2.83
2019-03-09T23:28:48.355Z,3.40
2019-03-09T23:31:21.392Z,3.23
2019-03-09T23:33:52.925Z,4.03
2019-03-09T23:36:26.037Z,3.40
2019-03-09T23:38:59.282Z,3.23
2019-03-09T23:41:31.753Z,3.63
2019-03-09T23:44:03.369Z,3.37
2019-03-09T23:46:36.592Z,3.40
2019-03-09T23:49:09.315Z,3.23
2019-03-09T23:51:40.984Z,3.23
2019-03-09T23:54:13.434Z,3.73
2019-03-09T23:56:45.178Z,3.00
2019-03-09T23:59:17.056Z,3.70
